EGNMEGNH

Guest
Details From EGNM - Leeds Bradford
To EGNH - Blackpool
Flight Number -
Tags generated
Created
Modified
Stats Distance 49 nm / 91 km
Max Altitude 6,400 ft / 1,951 m
Waypoints 3
Social Downloads 0
Likes 0
Share VATSIM

Download

Looking for another format? Having issues loading an existing format? Contact us
Advertisement - Login to hide

Notes

Basic altitude profile: - Ascent Rate: 2500ft/min - Ascent Speed: 210kts - Cruise Altitude: 12000ft - Cruise Speed: 210kts - Descent Rate: 1500ft/min - Descent Speed: 210kts Options: - Use NATs: yes - Use PACOTS: yes - Use low airways: yes - Use high airways: yes

Route

EGNM POL05 EGNH

ID Type Via Altitude Latitude Longitude Leg Dist Tot Dist Heading (true) Name
O EGNM APT - 0 ft / 0 m 53.86603˚ -1.66078˚ - 0 nm - Leeds Bradford
POL05 FIX - 6,400 ft / 1,951 m 53.81123˚ -2.18599˚ 18 nm 18 nm 260° / 260° -
O EGNH APT - 0 ft / 0 m 53.77238˚ -3.03261˚ 30 nm 49 nm 266° / 265° Blackpool

Altitude Profile

Advertisement - Login to hide

EGNM

Details ICAO EGNM (LBA)
Name Leeds Bradford
Region United Kingdom
Timezone Europe/London (UTC+0.0)
Stats Elevation 681 ft / 208 m (AMSL)
Location 53.866027° -1.660778°
Runways 1
Magnetic Variation 1.298° W

METAR

EGNM 161450Z 29007KT 9999 FEW016 02/00 Q1017

Decode

TAF

TAF TAF EGNM 161056Z 1612/1712 27008KT 9999 SCT035 BECMG 1704/1707 7000 -RA BKN010 TEMPO 1707/1712 4000 RADZ BKN006

Decode

Departure Runways

ID Width Length Bearing (true) Bearing (mag) Surface Threshold Offset Overrun Length
14 151 ft / 46 m 7,377 ft / 2,248 m 137.79° 139.09° Concrete 1,024 ft / 312 m 46 ft / 14 m
32 151 ft / 46 m 7,377 ft / 2,248 m 317.81° 319.11° Concrete 899 ft / 274 m 49 ft / 15 m

EGNH

Details ICAO EGNH (BLK)
Name Blackpool
Region United Kingdom
Timezone Europe/London (UTC+0.0)
Stats Elevation 34 ft / 10 m (AMSL)
Location 53.772383° -3.032609°
Runways 3
Magnetic Variation 1.811° W

METAR

EGNH 161450Z 33007KT 9999 FEW013 05/04 Q1018

Decode

TAF

Not found

Destination Runways

ID Width Length Bearing (true) Bearing (mag) Surface Threshold Offset Overrun Length
07 98 ft / 30 m 4,204 ft / 1,281 m 67.79° 69.60° Asphalt 262 ft / 80 m 0 ft / 0 m
10 151 ft / 46 m 6,112 ft / 1,863 m 94.65° 96.46° Asphalt 0 ft / 0 m 0 ft / 0 m
13 75 ft / 23 m 3,034 ft / 925 m 127.37° 129.18° Asphalt 0 ft / 0 m 0 ft / 0 m
25 98 ft / 30 m 4,204 ft / 1,281 m 247.81° 249.62° Asphalt 1,936 ft / 590 m 0 ft / 0 m
28 151 ft / 46 m 6,112 ft / 1,863 m 274.67° 276.48° Asphalt 0 ft / 0 m 0 ft / 0 m
31 75 ft / 23 m 3,034 ft / 925 m 307.38° 309.19° Asphalt 0 ft / 0 m 0 ft / 0 m

Approach Navaids

Runway Type Ident Frequency Range Bearing (true) Bearing (mag) Slope Elevation
28 Localiser IBPL 108.15 MHz 18 nm / 33 km 274.64° 276.46° - 55 ft / 17 m (AMSL)
28 Glidescope IBPL 108.15 MHz 10 nm / 19 km 274.66° 276.47° 3.00° 55 ft / 17 m (AMSL)

Popular Alternatives